createdAt,value
2023-01-29T00:00:19.800Z,20.04
2023-01-29T00:00:33.841Z,20.05
2023-01-29T00:00:47.822Z,20.04
2023-01-29T00:01:01.811Z,20.04
2023-01-29T00:01:15.813Z,20.05
2023-01-29T00:01:29.791Z,20.04
2023-01-29T00:01:43.842Z,20.05
2023-01-29T00:01:57.920Z,20.04
2023-01-29T00:02:12.078Z,20.04
2023-01-29T00:02:26.228Z,20.04
2023-01-29T00:02:40.263Z,20.04
2023-01-29T00:02:54.307Z,20.04
2023-01-29T00:03:08.348Z,20.04
2023-01-29T00:03:22.388Z,20.05
2023-01-29T00:03:36.384Z,20.05
2023-01-29T00:03:50.901Z,20.05
2023-01-29T00:04:04.882Z,20.05
2023-01-29T00:04:18.872Z,20.03
2023-01-29T00:04:32.868Z,20.05
2023-01-29T00:04:46.876Z,20.04
2023-01-29T00:05:12.951Z,20.04
2023-01-29T00:05:28.831Z,20.04
2023-01-29T00:05:42.847Z,20.05
2023-01-29T00:05:56.821Z,20.05
2023-01-29T00:06:10.802Z,20.05
2023-01-29T00:06:24.777Z,20.04
2023-01-29T00:06:38.764Z,20.04
2023-01-29T00:06:52.741Z,20.04
2023-01-29T00:07:06.760Z,20.05
2023-01-29T00:07:20.743Z,20.05
2023-01-29T00:07:34.739Z,20.06
2023-01-29T00:07:48.718Z,20.04
2023-01-29T00:08:02.704Z,20.05
2023-01-29T00:08:16.693Z,20.04
2023-01-29T00:08:30.694Z,20.05
2023-01-29T00:08:44.683Z,20.06
2023-01-29T00:08:58.676Z,20.05
2023-01-29T00:09:12.654Z,20.04
2023-01-29T00:09:26.654Z,20.05
2023-01-29T00:09:40.643Z,20.05
2023-01-29T00:10:08.623Z,20.06
2023-01-29T00:10:22.619Z,20.06
2023-01-29T00:10:36.608Z,20.06
2023-01-29T00:10:50.597Z,20.05
2023-01-29T00:11:04.590Z,20.06
2023-01-29T00:11:18.603Z,20.07
2023-01-29T00:11:32.584Z,20.06
2023-01-29T00:11:46.592Z,20.06
2023-01-29T00:12:00.602Z,20.06
2023-01-29T00:12:14.598Z,20.07
2023-01-29T00:12:28.585Z,20.06
2023-01-29T00:12:42.603Z,20.06
2023-01-29T00:12:56.587Z,20.06
2023-01-29T00:13:10.582Z,20.08
2023-01-29T00:13:24.589Z,20.07
2023-01-29T00:13:38.574Z,20.06
2023-01-29T00:13:52.570Z,20.05
2023-01-29T00:14:06.561Z,20.06
2023-01-29T00:14:20.550Z,20.08
2023-01-29T00:14:34.537Z,20.08
2023-01-29T00:14:48.540Z,20.07
2023-01-29T00:15:02.527Z,20.07
2023-01-29T00:15:16.509Z,20.07
2023-01-29T00:15:30.500Z,20.06
2023-01-29T00:15:44.494Z,20.06
2023-01-29T00:15:58.485Z,20.07
2023-01-29T00:16:12.491Z,20.07
2023-01-29T00:16:26.471Z,20.07
2023-01-29T00:16:40.508Z,20.07
2023-01-29T00:16:54.623Z,20.08
2023-01-29T00:17:08.687Z,20.07
2023-01-29T00:17:22.846Z,20.07
2023-01-29T00:17:36.863Z,20.06
2023-01-29T00:17:50.858Z,20.06
2023-01-29T00:18:18.807Z,20.06
2023-01-29T00:18:32.793Z,20.07
2023-01-29T00:18:46.772Z,20.07
2023-01-29T00:19:00.765Z,20.08
2023-01-29T00:19:14.801Z,20.08
2023-01-29T00:19:28.785Z,20.07
2023-01-29T00:19:42.772Z,20.08
2023-01-29T00:19:56.760Z,20.07
2023-01-29T00:20:10.755Z,20.07
2023-01-29T00:20:24.729Z,20.07
2023-01-29T00:20:38.736Z,20.08
2023-01-29T00:20:52.740Z,20.08
2023-01-29T00:21:06.737Z,20.07
2023-01-29T00:21:20.723Z,20.08
2023-01-29T00:21:34.734Z,20.08
2023-01-29T00:21:48.726Z,20.07
2023-01-29T00:22:02.701Z,20.08
2023-01-29T00:22:16.691Z,20.07
2023-01-29T00:22:30.688Z,20.08
2023-01-29T00:22:58.654Z,20.07
2023-01-29T00:23:12.632Z,20.08
2023-01-29T00:23:26.613Z,20.08
2023-01-29T00:23:40.618Z,20.08
2023-01-29T00:23:54.681Z,20.09
2023-01-29T00:24:08.745Z,20.10
2023-01-29T00:24:22.840Z,20.09
2023-01-29T00:24:36.874Z,20.09
2023-01-29T00:24:50.882Z,20.09
2023-01-29T00:25:04.859Z,20.09
2023-01-29T00:25:18.858Z,20.09
2023-01-29T00:25:32.833Z,20.07
2023-01-29T00:25:46.831Z,20.09
2023-01-29T00:26:00.813Z,20.08
2023-01-29T00:26:14.816Z,20.09
2023-01-29T00:26:28.810Z,20.09
2023-01-29T00:26:42.796Z,20.08
2023-01-29T00:26:56.790Z,20.08
2023-01-29T00:27:10.784Z,20.09
2023-01-29T00:27:38.770Z,20.09
2023-01-29T00:27:52.775Z,20.09
2023-01-29T00:28:06.766Z,20.10
2023-01-29T00:28:20.746Z,20.08
2023-01-29T00:28:34.733Z,20.08
2023-01-29T00:28:48.728Z,20.09
2023-01-29T00:29:02.747Z,20.09
2023-01-29T00:29:16.755Z,20.09
2023-01-29T00:29:30.771Z,20.09
2023-01-29T00:29:44.760Z,20.08
2023-01-29T00:29:58.759Z,20.07
2023-01-29T00:30:12.760Z,20.09
2023-01-29T00:30:26.757Z,20.08
2023-01-29T00:30:40.745Z,20.09
2023-01-29T00:30:54.953Z,20.09
2023-01-29T00:31:09.198Z,20.09
2023-01-29T00:31:23.431Z,20.09
2023-01-29T00:31:37.615Z,20.09
2023-01-29T00:31:51.783Z,20.08
2023-01-29T00:32:19.942Z,20.10
2023-01-29T00:32:33.988Z,20.08
2023-01-29T00:32:48.002Z,20.10
2023-01-29T00:33:01.998Z,20.10
2023-01-29T00:33:15.988Z,20.09
2023-01-29T00:33:30.009Z,20.09
2023-01-29T00:33:43.997Z,20.10
2023-01-29T00:33:57.994Z,20.10
2023-01-29T00:34:11.972Z,20.09
2023-01-29T00:34:25.965Z,20.09
2023-01-29T00:34:39.961Z,20.09
2023-01-29T00:34:53.966Z,20.10
2023-01-29T00:35:07.944Z,20.09
2023-01-29T00:35:21.923Z,20.10
2023-01-29T00:35:49.895Z,20.09
2023-01-29T00:36:03.889Z,20.10
2023-01-29T00:36:17.880Z,20.10
2023-01-29T00:36:31.873Z,20.11
2023-01-29T00:36:45.862Z,20.10
2023-01-29T00:36:59.856Z,20.10
2023-01-29T00:37:13.842Z,20.09
2023-01-29T00:37:27.825Z,20.10
2023-01-29T00:37:41.811Z,20.10
2023-01-29T00:37:55.790Z,20.11
2023-01-29T00:38:09.775Z,20.11
2023-01-29T00:38:23.789Z,20.10
2023-01-29T00:38:37.790Z,20.11
2023-01-29T00:38:51.787Z,20.11
2023-01-29T00:39:05.765Z,20.11
2023-01-29T00:39:19.751Z,20.10
2023-01-29T00:39:47.060Z,20.11
2023-01-29T00:39:48.457Z,20.10
2023-01-29T00:40:02.536Z,20.11
2023-01-29T00:40:16.881Z,20.11
2023-01-29T00:40:31.102Z,20.11
2023-01-29T00:40:59.065Z,20.12
2023-01-29T00:41:13.053Z,20.11
2023-01-29T00:41:27.049Z,20.10
2023-01-29T00:41:41.052Z,20.11
2023-01-29T00:41:55.030Z,20.11
2023-01-29T00:42:09.004Z,20.10
2023-01-29T00:42:22.987Z,20.12
2023-01-29T00:42:36.977Z,20.10
2023-01-29T00:42:50.968Z,20.10
2023-01-29T00:43:04.979Z,20.11
2023-01-29T00:43:18.974Z,20.11
2023-01-29T00:43:32.961Z,20.11
2023-01-29T00:43:47.465Z,20.11
2023-01-29T00:44:01.479Z,20.10
2023-01-29T00:44:15.467Z,20.10
2023-01-29T00:44:29.467Z,20.10
2023-01-29T00:44:43.470Z,20.10
2023-01-29T00:44:57.459Z,20.11
2023-01-29T00:45:11.442Z,20.10
2023-01-29T00:45:39.414Z,20.10
2023-01-29T00:45:53.400Z,20.11
2023-01-29T00:46:07.391Z,20.11
2023-01-29T00:46:21.414Z,20.12
2023-01-29T00:46:35.437Z,20.12
2023-01-29T00:46:49.552Z,20.11
2023-01-29T00:47:03.604Z,20.12
2023-01-29T00:47:17.608Z,20.11
2023-01-29T00:47:31.587Z,20.11
2023-01-29T00:47:45.583Z,20.11
2023-01-29T00:47:59.560Z,20.12
2023-01-29T00:48:13.570Z,20.12
2023-01-29T00:48:27.556Z,20.12
2023-01-29T00:48:41.548Z,20.10
2023-01-29T00:48:55.550Z,20.12
2023-01-29T00:49:09.544Z,20.11
2023-01-29T00:49:23.529Z,20.12
2023-01-29T00:49:37.548Z,20.12
2023-01-29T00:49:51.558Z,20.12
2023-01-29T00:50:19.744Z,20.12
2023-01-29T00:50:33.836Z,20.11
2023-01-29T00:50:47.818Z,20.12
2023-01-29T00:51:01.800Z,20.12
2023-01-29T00:51:15.788Z,20.11
2023-01-29T00:51:29.774Z,20.13
2023-01-29T00:51:43.771Z,20.12
2023-01-29T00:51:57.759Z,20.12
2023-01-29T00:52:11.755Z,20.12
2023-01-29T00:52:25.773Z,20.10
2023-01-29T00:52:39.776Z,20.12
2023-01-29T00:52:53.777Z,20.11
2023-01-29T00:53:07.787Z,20.11
2023-01-29T00:53:21.776Z,20.11
2023-01-29T00:53:35.763Z,20.12
2023-01-29T00:53:49.756Z,20.12
2023-01-29T00:54:03.739Z,20.11
2023-01-29T00:54:17.750Z,20.11
2023-01-29T00:54:33.138Z,20.11
2023-01-29T00:54:58.687Z,20.11
2023-01-29T00:55:12.697Z,20.11
2023-01-29T00:55:26.687Z,20.11
2023-01-29T00:55:40.675Z,20.11
2023-01-29T00:55:54.671Z,20.12
2023-01-29T00:56:08.662Z,20.12
2023-01-29T00:56:22.652Z,20.12
2023-01-29T00:56:36.670Z,20.12
2023-01-29T00:56:50.660Z,20.13
2023-01-29T00:57:04.647Z,20.12
2023-01-29T00:57:18.639Z,20.12
2023-01-29T00:57:32.637Z,20.12
2023-01-29T00:57:46.633Z,20.11
2023-01-29T00:58:00.611Z,20.11
2023-01-29T00:58:14.632Z,20.11
2023-01-29T00:58:28.615Z,20.11
2023-01-29T00:58:42.616Z,20.12
2023-01-29T00:58:56.591Z,20.11
2023-01-29T00:59:10.576Z,20.11
2023-01-29T00:59:24.563Z,20.12
2023-01-29T00:59:38.563Z,20.12
2023-01-29T00:59:52.548Z,20.10
2023-01-29T01:00:06.568Z,20.11
2023-01-29T01:00:20.553Z,20.11
2023-01-29T01:00:34.621Z,20.11
2023-01-29T01:00:48.663Z,20.11
2023-01-29T01:01:02.789Z,20.11
2023-01-29T01:01:16.855Z,20.11
2023-01-29T01:01:30.882Z,20.11
2023-01-29T01:01:44.903Z,20.11
2023-01-29T01:01:58.956Z,20.12
2023-01-29T01:02:12.999Z,20.12
2023-01-29T01:02:26.997Z,20.11
2023-01-29T01:02:40.996Z,20.11
2023-01-29T01:03:08.952Z,20.12
2023-01-29T01:03:22.948Z,20.12
2023-01-29T01:03:36.934Z,20.12
2023-01-29T01:03:50.921Z,20.11
2023-01-29T01:04:04.915Z,20.11
2023-01-29T01:04:18.909Z,20.11
2023-01-29T01:04:35.003Z,20.11
2023-01-29T01:04:46.498Z,20.11
2023-01-29T01:05:00.497Z,20.12
2023-01-29T01:05:14.483Z,20.11
2023-01-29T01:05:28.469Z,20.11
2023-01-29T01:05:42.480Z,20.11
2023-01-29T01:05:56.473Z,20.11
2023-01-29T01:06:10.505Z,20.12
2023-01-29T01:06:24.519Z,20.12
2023-01-29T01:06:38.538Z,20.12
2023-01-29T01:06:52.527Z,20.11
2023-01-29T01:07:06.519Z,20.11
2023-01-29T01:07:20.511Z,20.12
2023-01-29T01:07:34.514Z,20.11
2023-01-29T01:07:48.499Z,20.11
2023-01-29T01:08:02.491Z,20.13
2023-01-29T01:08:16.484Z,20.12
2023-01-29T01:08:30.482Z,20.13
2023-01-29T01:08:44.458Z,20.13
2023-01-29T01:08:58.450Z,20.12
2023-01-29T01:09:12.441Z,20.12
2023-01-29T01:09:26.431Z,20.12
2023-01-29T01:09:40.416Z,20.11
2023-01-29T01:09:54.428Z,20.12
2023-01-29T01:10:08.414Z,20.12
2023-01-29T01:10:22.450Z,20.13
2023-01-29T01:10:36.459Z,20.12
2023-01-29T01:10:50.446Z,20.12
2023-01-29T01:11:04.424Z,20.12
2023-01-29T01:11:18.409Z,20.13
2023-01-29T01:11:32.455Z,20.12
2023-01-29T01:11:46.450Z,20.12
2023-01-29T01:12:00.452Z,20.13
2023-01-29T01:12:14.461Z,20.12
2023-01-29T01:12:28.436Z,20.12
2023-01-29T01:12:42.429Z,20.13
2023-01-29T01:12:56.437Z,20.13
2023-01-29T01:13:11.464Z,20.12
2023-01-29T01:13:25.490Z,20.11
2023-01-29T01:13:39.465Z,20.12
2023-01-29T01:13:53.448Z,20.12
2023-01-29T01:14:07.424Z,20.12
2023-01-29T01:14:21.417Z,20.12
2023-01-29T01:14:35.399Z,20.12
2023-01-29T01:14:49.399Z,20.12
2023-01-29T01:15:03.396Z,20.13
2023-01-29T01:15:17.401Z,20.12
2023-01-29T01:15:31.381Z,20.13
2023-01-29T01:15:45.365Z,20.13
2023-01-29T01:15:59.367Z,20.13
2023-01-29T01:16:13.395Z,20.13
2023-01-29T01:16:27.532Z,20.14
2023-01-29T01:16:41.571Z,20.12
2023-01-29T01:16:55.552Z,20.13
2023-01-29T01:17:10.083Z,20.13
2023-01-29T01:17:24.072Z,20.14
2023-01-29T01:17:38.066Z,20.13
2023-01-29T01:17:52.046Z,20.13
2023-01-29T01:18:06.035Z,20.14
2023-01-29T01:18:20.030Z,20.13
2023-01-29T01:18:34.019Z,20.13
2023-01-29T01:18:48.008Z,20.13
2023-01-29T01:19:02.001Z,20.13
2023-01-29T01:19:15.981Z,20.12
2023-01-29T01:19:30.007Z,20.13
2023-01-29T01:19:43.998Z,20.13
2023-01-29T01:19:57.995Z,20.14
2023-01-29T01:20:11.990Z,20.12
2023-01-29T01:20:25.990Z,20.12
2023-01-29T01:20:39.975Z,20.13
2023-01-29T01:20:53.966Z,20.13
2023-01-29T01:21:07.947Z,20.13
2023-01-29T01:21:21.939Z,20.12
2023-01-29T01:21:35.929Z,20.13
2023-01-29T01:21:49.991Z,20.13
2023-01-29T01:22:03.975Z,20.14
2023-01-29T01:22:17.965Z,20.13
2023-01-29T01:22:31.959Z,20.13
2023-01-29T01:22:45.939Z,20.13
2023-01-29T01:22:59.920Z,20.13
2023-01-29T01:23:13.906Z,20.12
2023-01-29T01:23:27.930Z,20.13
2023-01-29T01:23:41.952Z,20.12
2023-01-29T01:23:56.074Z,20.12
2023-01-29T01:24:10.148Z,20.13
2023-01-29T01:24:24.255Z,20.12
2023-01-29T01:24:38.275Z,20.13
2023-01-29T01:24:52.292Z,20.13
2023-01-29T01:25:06.288Z,20.13
2023-01-29T01:25:20.274Z,20.13
2023-01-29T01:25:34.275Z,20.14
2023-01-29T01:25:48.276Z,20.13
2023-01-29T01:26:02.288Z,20.14
2023-01-29T01:26:16.267Z,20.14
2023-01-29T01:26:30.277Z,20.14
2023-01-29T01:26:44.256Z,20.13
2023-01-29T01:26:58.251Z,20.14
2023-01-29T01:27:12.237Z,20.14
2023-01-29T01:27:26.229Z,20.14
2023-01-29T01:27:54.190Z,20.13
2023-01-29T01:28:08.166Z,20.13
2023-01-29T01:28:22.157Z,20.13
2023-01-29T01:28:36.157Z,20.13
2023-01-29T01:28:50.150Z,20.13
2023-01-29T01:29:04.125Z,20.13
2023-01-29T01:29:18.130Z,20.13
2023-01-29T01:29:32.138Z,20.13
2023-01-29T01:29:46.127Z,20.13
2023-01-29T01:30:00.126Z,20.14
2023-01-29T01:30:14.633Z,20.14
2023-01-29T01:30:28.850Z,20.13
2023-01-29T01:30:43.732Z,20.12
2023-01-29T01:30:57.792Z,20.13
2023-01-29T01:31:12.430Z,20.13
2023-01-29T01:31:26.701Z,20.13
2023-01-29T01:31:40.865Z,20.13
2023-01-29T01:31:54.906Z,20.12
2023-01-29T01:32:08.911Z,20.11
2023-01-29T01:32:22.888Z,20.12
2023-01-29T01:32:36.879Z,20.13
2023-01-29T01:32:50.864Z,20.13
2023-01-29T01:33:04.858Z,20.14
2023-01-29T01:33:18.851Z,20.14
2023-01-29T01:33:32.855Z,20.13
2023-01-29T01:33:46.844Z,20.12
2023-01-29T01:34:00.890Z,20.13
2023-01-29T01:34:14.874Z,20.13
2023-01-29T01:34:28.877Z,20.13
2023-01-29T01:34:42.868Z,20.14
2023-01-29T01:34:56.877Z,20.13
2023-01-29T01:35:10.881Z,20.13
2023-01-29T01:35:24.873Z,20.12
2023-01-29T01:35:38.878Z,20.11
2023-01-29T01:35:52.927Z,20.12
2023-01-29T01:36:06.916Z,20.12
2023-01-29T01:36:20.914Z,20.13
2023-01-29T01:36:34.899Z,20.13
2023-01-29T01:36:48.883Z,20.13
2023-01-29T01:37:02.883Z,20.14
2023-01-29T01:37:16.901Z,20.13
2023-01-29T01:37:30.921Z,20.13
2023-01-29T01:37:44.925Z,20.13
2023-01-29T01:37:58.923Z,20.14
2023-01-29T01:38:12.912Z,20.13
2023-01-29T01:38:26.899Z,20.13
2023-01-29T01:38:40.900Z,20.13
2023-01-29T01:38:54.900Z,20.13
2023-01-29T01:39:08.898Z,20.15
2023-01-29T01:39:22.886Z,20.14
2023-01-29T01:39:36.865Z,20.14
2023-01-29T01:39:50.854Z,20.14
2023-01-29T01:40:04.835Z,20.13
2023-01-29T01:40:19.239Z,20.14
2023-01-29T01:40:33.386Z,20.15
2023-01-29T01:40:47.372Z,20.15
2023-01-29T01:41:01.377Z,20.15
2023-01-29T01:41:15.386Z,20.14
2023-01-29T01:41:29.365Z,20.14
2023-01-29T01:41:43.357Z,20.14
2023-01-29T01:41:57.352Z,20.14
2023-01-29T01:42:11.343Z,20.13
2023-01-29T01:42:25.324Z,20.15
2023-01-29T01:42:39.842Z,20.14
2023-01-29T01:42:53.824Z,20.13
2023-01-29T01:43:07.819Z,20.15
2023-01-29T01:43:21.808Z,20.14
2023-01-29T01:43:35.793Z,20.14
2023-01-29T01:43:49.801Z,20.15
2023-01-29T01:44:03.823Z,20.15
2023-01-29T01:44:17.862Z,20.15
2023-01-29T01:44:31.852Z,20.15
2023-01-29T01:44:45.833Z,20.16
2023-01-29T01:44:59.838Z,20.15
2023-01-29T01:45:13.820Z,20.14
2023-01-29T01:45:27.869Z,20.15
2023-01-29T01:45:41.942Z,20.15
2023-01-29T01:45:56.028Z,20.15
2023-01-29T01:46:10.183Z,20.14
2023-01-29T01:46:24.246Z,20.15
2023-01-29T01:46:38.265Z,20.15
2023-01-29T01:46:52.291Z,20.15
2023-01-29T01:47:06.286Z,20.14
2023-01-29T01:47:20.284Z,20.14
2023-01-29T01:47:34.264Z,20.14
2023-01-29T01:47:48.261Z,20.15
2023-01-29T01:48:02.247Z,20.15
2023-01-29T01:48:30.206Z,20.15
2023-01-29T01:48:44.205Z,20.15
2023-01-29T01:48:58.198Z,20.14
2023-01-29T01:49:12.193Z,20.15
2023-01-29T01:49:26.170Z,20.14
2023-01-29T01:49:40.169Z,20.15
2023-01-29T01:49:54.153Z,20.14
2023-01-29T01:50:08.173Z,20.14
2023-01-29T01:50:22.162Z,20.14
2023-01-29T01:50:36.172Z,20.15
2023-01-29T01:50:50.202Z,20.14
2023-01-29T01:51:04.237Z,20.14
2023-01-29T01:51:18.235Z,20.15
2023-01-29T01:51:32.239Z,20.15
2023-01-29T01:51:46.266Z,20.15
2023-01-29T01:52:00.269Z,20.15
2023-01-29T01:52:14.271Z,20.14
2023-01-29T01:52:28.254Z,20.15
2023-01-29T01:52:42.249Z,20.13
2023-01-29T01:53:10.213Z,20.15
2023-01-29T01:53:24.217Z,20.15
2023-01-29T01:53:38.198Z,20.15
2023-01-29T01:53:52.190Z,20.13
2023-01-29T01:54:06.173Z,20.14
2023-01-29T01:54:20.164Z,20.14
2023-01-29T01:54:34.150Z,20.14
2023-01-29T01:54:48.156Z,20.14
2023-01-29T01:55:02.177Z,20.13
2023-01-29T01:55:16.211Z,20.13
2023-01-29T01:55:30.202Z,20.14
2023-01-29T01:55:45.049Z,20.13
2023-01-29T01:55:59.059Z,20.14
2023-01-29T01:56:13.033Z,20.14
2023-01-29T01:56:27.016Z,20.14
2023-01-29T01:56:41.012Z,20.13
2023-01-29T01:56:55.343Z,20.15
2023-01-29T01:57:09.361Z,20.16
2023-01-29T01:57:23.370Z,20.15
2023-01-29T01:57:51.328Z,20.16
2023-01-29T01:58:05.333Z,20.15
2023-01-29T01:58:19.322Z,20.14
2023-01-29T01:58:33.291Z,20.16
2023-01-29T01:58:47.295Z,20.15
2023-01-29T01:59:01.299Z,20.15
2023-01-29T01:59:15.299Z,20.16
2023-01-29T01:59:29.274Z,20.14
2023-01-29T01:59:43.275Z,20.16
2023-01-29T01:59:57.258Z,20.15
2023-01-29T02:00:11.291Z,20.14
2023-01-29T02:00:25.290Z,20.16
2023-01-29T02:00:39.338Z,20.15
2023-01-29T02:00:53.418Z,20.16
2023-01-29T02:01:21.444Z,20.14
2023-01-29T02:01:35.484Z,20.14
2023-01-29T02:01:49.490Z,20.16
2023-01-29T02:02:03.539Z,20.16
2023-01-29T02:02:17.557Z,20.15
2023-01-29T02:02:31.597Z,20.16
2023-01-29T02:02:45.620Z,20.15
2023-01-29T02:02:59.608Z,20.16
2023-01-29T02:03:13.595Z,20.14
2023-01-29T02:03:27.582Z,20.16
2023-01-29T02:03:41.557Z,20.15
2023-01-29T02:03:55.563Z,20.15
2023-01-29T02:04:09.544Z,20.15
2023-01-29T02:04:23.534Z,20.14
2023-01-29T02:04:37.517Z,20.14
2023-01-29T02:04:51.508Z,20.15
2023-01-29T02:05:05.495Z,20.16
2023-01-29T02:05:19.497Z,20.15
2023-01-29T02:05:33.487Z,20.15
2023-01-29T02:06:01.442Z,20.15
2023-01-29T02:06:15.447Z,20.15
2023-01-29T02:06:29.444Z,20.15
2023-01-29T02:06:43.442Z,20.16
2023-01-29T02:06:57.428Z,20.16
2023-01-29T02:07:11.420Z,20.16
2023-01-29T02:07:25.405Z,20.17
2023-01-29T02:07:39.426Z,20.16
2023-01-29T02:07:53.407Z,20.17
2023-01-29T02:08:07.394Z,20.16
2023-01-29T02:08:21.394Z,20.16
2023-01-29T02:08:35.384Z,20.16
2023-01-29T02:08:49.358Z,20.15
2023-01-29T02:09:03.344Z,20.16
2023-01-29T02:09:17.335Z,20.17
2023-01-29T02:09:31.332Z,20.16
2023-01-29T02:09:45.307Z,20.15
2023-01-29T02:09:59.301Z,20.15
2023-01-29T02:10:13.397Z,20.16
2023-01-29T02:10:41.430Z,20.16
2023-01-29T02:10:55.426Z,20.16
2023-01-29T02:11:09.406Z,20.17
2023-01-29T02:11:23.404Z,20.16
2023-01-29T02:11:37.383Z,20.16
2023-01-29T02:11:51.383Z,20.16
2023-01-29T02:12:05.372Z,20.16
2023-01-29T02:12:19.883Z,20.16
2023-01-29T02:12:33.861Z,20.16
2023-01-29T02:12:47.861Z,20.16
2023-01-29T02:13:01.861Z,20.16
2023-01-29T02:13:15.862Z,20.16
2023-01-29T02:13:29.857Z,20.15
2023-01-29T02:13:43.854Z,20.15
2023-01-29T02:13:57.833Z,20.17
2023-01-29T02:14:11.858Z,20.15
2023-01-29T02:14:25.845Z,20.16
2023-01-29T02:14:39.851Z,20.16
2023-01-29T02:14:53.841Z,20.16
2023-01-29T02:15:08.011Z,20.17
2023-01-29T02:15:21.999Z,20.17
2023-01-29T02:15:49.958Z,20.16
2023-01-29T02:16:03.952Z,20.15
2023-01-29T02:16:18.003Z,20.15
2023-01-29T02:16:31.990Z,20.15
2023-01-29T02:16:45.989Z,20.16
2023-01-29T02:16:59.969Z,20.16
2023-01-29T02:17:14.019Z,20.17
2023-01-29T02:17:28.121Z,20.15
2023-01-29T02:17:42.175Z,20.18
2023-01-29T02:17:56.197Z,20.16
2023-01-29T02:18:10.194Z,20.17
2023-01-29T02:18:24.183Z,20.16
2023-01-29T02:18:38.170Z,20.16
2023-01-29T02:18:52.159Z,20.16
2023-01-29T02:19:06.165Z,20.17
2023-01-29T02:19:20.148Z,20.18
2023-01-29T02:19:34.142Z,20.17
2023-01-29T02:19:48.191Z,20.17
2023-01-29T02:20:02.253Z,20.16
2023-01-29T02:20:30.200Z,20.17
2023-01-29T02:20:44.200Z,20.17
2023-01-29T02:20:58.197Z,20.17
2023-01-29T02:21:12.195Z,20.17
2023-01-29T02:21:26.191Z,20.17
2023-01-29T02:21:40.201Z,20.17
2023-01-29T02:21:54.194Z,20.17
2023-01-29T02:22:08.185Z,20.17
2023-01-29T02:22:22.168Z,20.17
2023-01-29T02:22:36.162Z,20.17
2023-01-29T02:22:50.163Z,20.17
2023-01-29T02:23:04.152Z,20.16
2023-01-29T02:23:18.154Z,20.17
2023-01-29T02:23:32.161Z,20.17
2023-01-29T02:23:46.215Z,20.17
2023-01-29T02:24:00.426Z,20.17
2023-01-29T02:24:14.694Z,20.18
2023-01-29T02:24:28.789Z,20.18
2023-01-29T02:24:42.848Z,20.17
2023-01-29T02:24:56.889Z,20.17
2023-01-29T02:25:11.393Z,20.18
2023-01-29T02:25:25.383Z,20.18
2023-01-29T02:25:39.393Z,20.18
2023-01-29T02:25:53.385Z,20.17
2023-01-29T02:26:07.370Z,20.19
2023-01-29T02:26:21.378Z,20.18
2023-01-29T02:26:35.366Z,20.18
2023-01-29T02:26:49.353Z,20.17
2023-01-29T02:27:03.360Z,20.19
2023-01-29T02:27:17.366Z,20.18
2023-01-29T02:27:31.343Z,20.19
2023-01-29T02:27:45.344Z,20.19
2023-01-29T02:27:59.332Z,20.17
2023-01-29T02:28:13.317Z,20.19
2023-01-29T02:28:41.275Z,20.19
2023-01-29T02:28:55.263Z,20.18
2023-01-29T02:29:09.244Z,20.18
2023-01-29T02:29:23.241Z,20.19
2023-01-29T02:29:37.215Z,20.20
2023-01-29T02:29:51.723Z,20.18
2023-01-29T02:30:05.739Z,20.20
2023-01-29T02:30:19.750Z,20.20
2023-01-29T02:30:33.738Z,20.19
2023-01-29T02:30:47.729Z,20.20
2023-01-29T02:31:01.871Z,20.19
2023-01-29T02:31:15.986Z,20.20
2023-01-29T02:31:30.022Z,20.21
2023-01-29T02:31:44.085Z,20.21
2023-01-29T02:31:58.210Z,20.20
2023-01-29T02:32:12.241Z,20.21
2023-01-29T02:32:26.229Z,20.20
2023-01-29T02:32:40.223Z,20.21
2023-01-29T02:32:54.258Z,20.21
2023-01-29T02:33:08.260Z,20.22
2023-01-29T02:33:22.261Z,20.21
2023-01-29T02:33:50.225Z,20.21
2023-01-29T02:34:04.202Z,20.21
2023-01-29T02:34:18.193Z,20.21
2023-01-29T02:34:32.181Z,20.21
2023-01-29T02:34:46.168Z,20.21
2023-01-29T02:35:00.173Z,20.21
2023-01-29T02:35:14.169Z,20.21
2023-01-29T02:35:28.153Z,20.21
2023-01-29T02:35:42.141Z,20.22
2023-01-29T02:35:56.125Z,20.21
2023-01-29T02:36:10.241Z,20.21
2023-01-29T02:36:24.223Z,20.21
2023-01-29T02:36:38.214Z,20.20
2023-01-29T02:36:52.232Z,20.22
2023-01-29T02:37:06.232Z,20.21
2023-01-29T02:37:20.232Z,20.21
2023-01-29T02:37:34.225Z,20.21
2023-01-29T02:37:48.204Z,20.22
2023-01-29T02:38:02.188Z,20.22
2023-01-29T02:38:30.138Z,20.22
2023-01-29T02:38:44.133Z,20.22
2023-01-29T02:38:58.142Z,20.21
2023-01-29T02:39:12.145Z,20.21
2023-01-29T02:39:26.125Z,20.21
2023-01-29T02:39:40.131Z,20.23
2023-01-29T02:39:54.160Z,20.22
2023-01-29T02:40:08.145Z,20.22
2023-01-29T02:40:22.217Z,20.22
2023-01-29T02:40:36.213Z,20.22
2023-01-29T02:40:50.196Z,20.21
2023-01-29T02:41:04.187Z,20.21
2023-01-29T02:41:18.182Z,20.22
2023-01-29T02:41:32.174Z,20.22
2023-01-29T02:41:46.167Z,20.22
2023-01-29T02:42:00.146Z,20.23
2023-01-29T02:42:14.139Z,20.22
2023-01-29T02:42:28.124Z,20.23
2023-01-29T02:42:42.127Z,20.22
2023-01-29T02:43:10.089Z,20.23
2023-01-29T02:43:24.076Z,20.23
2023-01-29T02:43:38.075Z,20.23
2023-01-29T02:43:52.066Z,20.22
2023-01-29T02:44:06.054Z,20.23
2023-01-29T02:44:20.032Z,20.22
2023-01-29T02:44:34.071Z,20.23
2023-01-29T02:44:48.058Z,20.23
2023-01-29T02:45:02.063Z,20.23
2023-01-29T02:45:16.049Z,20.22
2023-01-29T02:45:30.044Z,20.23
2023-01-29T02:45:44.045Z,20.23
2023-01-29T02:45:58.079Z,20.23
2023-01-29T02:46:12.175Z,20.23
2023-01-29T02:46:26.209Z,20.23
2023-01-29T02:46:40.251Z,20.22
2023-01-29T02:46:54.243Z,20.22
2023-01-29T02:47:08.222Z,20.23
2023-01-29T02:47:22.219Z,20.22
2023-01-29T02:47:36.195Z,20.22
2023-01-29T02:47:50.201Z,20.23
2023-01-29T02:48:04.176Z,20.22
2023-01-29T02:48:18.164Z,20.22
2023-01-29T02:48:32.172Z,20.22
2023-01-29T02:48:46.162Z,20.22
2023-01-29T02:49:00.149Z,20.22
2023-01-29T02:49:14.160Z,20.22
2023-01-29T02:49:28.154Z,20.23
2023-01-29T02:49:42.160Z,20.22
2023-01-29T02:49:56.145Z,20.22
2023-01-29T02:50:10.151Z,20.22
2023-01-29T02:50:24.126Z,20.21
2023-01-29T02:50:38.144Z,20.22
2023-01-29T02:50:52.125Z,20.22
2023-01-29T02:51:20.106Z,20.22
2023-01-29T02:51:34.123Z,20.23
2023-01-29T02:51:48.100Z,20.23
2023-01-29T02:52:02.094Z,20.23
2023-01-29T02:52:16.071Z,20.23
2023-01-29T02:52:30.070Z,20.22
2023-01-29T02:52:44.052Z,20.23
2023-01-29T02:52:58.036Z,20.22
2023-01-29T02:53:12.017Z,20.24
2023-01-29T02:53:25.998Z,20.23
2023-01-29T02:53:39.982Z,20.23
2023-01-29T02:53:53.975Z,20.23
2023-01-29T02:54:07.965Z,20.23
2023-01-29T02:54:21.955Z,20.23
2023-01-29T02:54:35.952Z,20.24
2023-01-29T02:54:49.940Z,20.23
2023-01-29T02:55:03.923Z,20.24
2023-01-29T02:55:17.923Z,20.23
2023-01-29T02:55:31.921Z,20.24
2023-01-29T02:55:59.883Z,20.24
2023-01-29T02:56:13.874Z,20.23
2023-01-29T02:56:27.882Z,20.23
2023-01-29T02:56:41.866Z,20.25
2023-01-29T02:56:55.873Z,20.24
2023-01-29T02:57:09.900Z,20.23
2023-01-29T02:57:23.877Z,20.23
2023-01-29T02:57:37.863Z,20.24
2023-01-29T02:57:51.843Z,20.25
2023-01-29T02:58:05.855Z,20.24
2023-01-29T02:58:19.835Z,20.24
2023-01-29T02:58:33.837Z,20.25
2023-01-29T02:58:47.817Z,20.25
2023-01-29T02:59:01.814Z,20.24
2023-01-29T02:59:15.828Z,20.24
2023-01-29T02:59:29.831Z,20.25
2023-01-29T02:59:43.841Z,20.25
2023-01-29T02:59:57.842Z,20.23
2023-01-29T03:00:11.837Z,20.23
2023-01-29T03:00:39.774Z,20.24
2023-01-29T03:00:53.782Z,20.23
2023-01-29T03:01:07.929Z,20.23
2023-01-29T03:01:22.033Z,20.24
2023-01-29T03:01:36.058Z,20.24
2023-01-29T03:01:50.049Z,20.23
2023-01-29T03:02:04.063Z,20.24
2023-01-29T03:02:18.147Z,20.23
2023-01-29T03:02:32.324Z,20.23
2023-01-29T03:02:46.353Z,20.23
2023-01-29T03:03:00.340Z,20.23
2023-01-29T03:03:14.344Z,20.24
2023-01-29T03:03:28.343Z,20.23
2023-01-29T03:03:42.327Z,20.23
2023-01-29T03:03:56.359Z,20.24
2023-01-29T03:04:10.372Z,20.24
2023-01-29T03:04:24.365Z,20.24
2023-01-29T03:04:38.344Z,20.24
2023-01-29T03:04:52.335Z,20.24
2023-01-29T03:05:20.329Z,20.24
2023-01-29T03:05:34.312Z,20.24
2023-01-29T03:05:48.829Z,20.24
2023-01-29T03:06:02.818Z,20.24
2023-01-29T03:06:16.807Z,20.24
2023-01-29T03:06:30.782Z,20.24
2023-01-29T03:06:44.793Z,20.25
2023-01-29T03:06:58.786Z,20.25
2023-01-29T03:07:12.771Z,20.24
2023-01-29T03:07:26.769Z,20.25